sensor_id;sensor_type;location;lat;lon;timestamp;temperature;humidity
18884;DHT22;9574;47.282;9.640;2023-11-21T00:01:21;8.10;99.90
18884;DHT22;9574;47.282;9.640;2023-11-21T00:03:50;8.10;99.90
18884;DHT22;9574;47.282;9.640;2023-11-21T00:06:20;7.90;99.90
18884;DHT22;9574;47.282;9.640;2023-11-21T00:08:47;7.80;99.90
18884;DHT22;9574;47.282;9.640;2023-11-21T00:11:14;7.80;99.90
18884;DHT22;9574;47.282;9.640;2023-11-21T00:13:41;7.80;99.90
18884;DHT22;9574;47.282;9.640;2023-11-21T00:16:08;7.90;99.90
18884;DHT22;9574;47.282;9.640;2023-11-21T00:18:35;7.90;99.90
18884;DHT22;9574;47.282;9.640;2023-11-21T00:21:03;7.90;99.90
18884;DHT22;9574;47.282;9.640;2023-11-21T00:23:30;7.90;99.90
18884;DHT22;9574;47.282;9.640;2023-11-21T00:25:57;7.90;99.90
18884;DHT22;9574;47.282;9.640;2023-11-21T00:28:25;8.00;99.90
18884;DHT22;9574;47.282;9.640;2023-11-21T00:30:52;8.00;99.90
18884;DHT22;9574;47.282;9.640;2023-11-21T00:33:19;8.00;99.90
18884;DHT22;9574;47.282;9.640;2023-11-21T00:35:46;8.00;99.90
18884;DHT22;9574;47.282;9.640;2023-11-21T00:38:15;8.00;99.90
18884;DHT22;9574;47.282;9.640;2023-11-21T00:40:45;8.00;99.90
18884;DHT22;9574;47.282;9.640;2023-11-21T00:43:12;8.10;99.90
18884;DHT22;9574;47.282;9.640;2023-11-21T00:45:40;8.10;99.90
18884;DHT22;9574;47.282;9.640;2023-11-21T00:48:08;8.20;99.90
18884;DHT22;9574;47.282;9.640;2023-11-21T00:50:35;8.60;99.90
18884;DHT22;9574;47.282;9.640;2023-11-21T00:53:02;8.90;99.90
18884;DHT22;9574;47.282;9.640;2023-11-21T00:55:30;8.80;99.90
18884;DHT22;9574;47.282;9.640;2023-11-21T00:57:57;8.40;99.90
18884;DHT22;9574;47.282;9.640;2023-11-21T01:00:24;8.30;99.90
18884;DHT22;9574;47.282;9.640;2023-11-21T01:02:51;8.10;99.90
18884;DHT22;9574;47.282;9.640;2023-11-21T01:05:18;8.00;99.90
18884;DHT22;9574;47.282;9.640;2023-11-21T01:07:46;8.00;99.90
18884;DHT22;9574;47.282;9.640;2023-11-21T01:10:13;7.90;99.90
18884;DHT22;9574;47.282;9.640;2023-11-21T01:12:41;7.90;99.90
18884;DHT22;9574;47.282;9.640;2023-11-21T01:15:08;7.80;99.90
18884;DHT22;9574;47.282;9.640;2023-11-21T01:17:37;7.80;99.90
18884;DHT22;9574;47.282;9.640;2023-11-21T01:20:06;8.10;99.90
18884;DHT22;9574;47.282;9.640;2023-11-21T01:22:37;8.20;99.90
18884;DHT22;9574;47.282;9.640;2023-11-21T01:25:04;8.00;99.90
18884;DHT22;9574;47.282;9.640;2023-11-21T01:27:33;7.90;99.90
18884;DHT22;9574;47.282;9.640;2023-11-21T01:30:02;8.00;99.90
18884;DHT22;9574;47.282;9.640;2023-11-21T01:32:30;7.90;99.90
18884;DHT22;9574;47.282;9.640;2023-11-21T01:34:57;7.80;99.90
18884;DHT22;9574;47.282;9.640;2023-11-21T01:37:24;8.00;99.90
18884;DHT22;9574;47.282;9.640;2023-11-21T01:39:53;8.20;99.90
18884;DHT22;9574;47.282;9.640;2023-11-21T01:42:20;8.10;99.90
18884;DHT22;9574;47.282;9.640;2023-11-21T01:44:47;8.00;99.90
18884;DHT22;9574;47.282;9.640;2023-11-21T01:47:16;7.90;99.90
18884;DHT22;9574;47.282;9.640;2023-11-21T01:49:44;7.80;99.90
18884;DHT22;9574;47.282;9.640;2023-11-21T01:52:12;7.70;99.90
18884;DHT22;9574;47.282;9.640;2023-11-21T01:54:41;7.60;99.90
18884;DHT22;9574;47.282;9.640;2023-11-21T01:57:08;7.60;99.90
18884;DHT22;9574;47.282;9.640;2023-11-21T01:59:36;7.60;99.90
18884;DHT22;9574;47.282;9.640;2023-11-21T02:02:04;7.80;99.90
18884;DHT22;9574;47.282;9.640;2023-11-21T02:04:33;8.10;99.90
18884;DHT22;9574;47.282;9.640;2023-11-21T02:07:01;8.30;99.90
18884;DHT22;9574;47.282;9.640;2023-11-21T02:09:29;8.50;99.90
18884;DHT22;9574;47.282;9.640;2023-11-21T02:11:57;8.50;99.90
18884;DHT22;9574;47.282;9.640;2023-11-21T02:14:24;8.50;99.90
18884;DHT22;9574;47.282;9.640;2023-11-21T02:16:53;8.60;99.90
18884;DHT22;9574;47.282;9.640;2023-11-21T02:19:21;8.70;99.90
18884;DHT22;9574;47.282;9.640;2023-11-21T02:21:52;8.80;99.90
18884;DHT22;9574;47.282;9.640;2023-11-21T02:24:22;8.50;99.90
18884;DHT22;9574;47.282;9.640;2023-11-21T02:26:49;8.30;99.90
18884;DHT22;9574;47.282;9.640;2023-11-21T02:29:17;8.10;99.90
18884;DHT22;9574;47.282;9.640;2023-11-21T02:31:48;7.90;99.90
18884;DHT22;9574;47.282;9.640;2023-11-21T02:34:15;8.10;99.90
18884;DHT22;9574;47.282;9.640;2023-11-21T02:36:42;8.00;99.90
18884;DHT22;9574;47.282;9.640;2023-11-21T02:39:10;7.80;99.90
18884;DHT22;9574;47.282;9.640;2023-11-21T02:41:39;7.80;99.90
18884;DHT22;9574;47.282;9.640;2023-11-21T02:44:06;7.70;99.90
18884;DHT22;9574;47.282;9.640;2023-11-21T02:46:33;8.00;99.90
18884;DHT22;9574;47.282;9.640;2023-11-21T02:49:00;8.00;99.90
18884;DHT22;9574;47.282;9.640;2023-11-21T02:51:27;7.80;99.90
18884;DHT22;9574;47.282;9.640;2023-11-21T02:53:55;7.60;99.90
18884;DHT22;9574;47.282;9.640;2023-11-21T02:56:24;7.50;99.90
18884;DHT22;9574;47.282;9.640;2023-11-21T02:58:55;7.40;99.90
18884;DHT22;9574;47.282;9.640;2023-11-21T03:01:23;7.40;99.90
18884;DHT22;9574;47.282;9.640;2023-11-21T03:03:50;7.30;99.90
18884;DHT22;9574;47.282;9.640;2023-11-21T03:06:18;7.20;99.90
18884;DHT22;9574;47.282;9.640;2023-11-21T03:08:45;7.10;99.90
18884;DHT22;9574;47.282;9.640;2023-11-21T03:11:12;7.20;99.90
18884;DHT22;9574;47.282;9.640;2023-11-21T03:13:39;7.30;99.90
18884;DHT22;9574;47.282;9.640;2023-11-21T03:16:09;7.60;99.90
18884;DHT22;9574;47.282;9.640;2023-11-21T03:18:37;7.90;99.90
18884;DHT22;9574;47.282;9.640;2023-11-21T03:21:04;8.00;99.90
18884;DHT22;9574;47.282;9.640;2023-11-21T03:23:31;8.30;99.90
18884;DHT22;9574;47.282;9.640;2023-11-21T03:25:58;8.40;99.90
18884;DHT22;9574;47.282;9.640;2023-11-21T03:28:25;8.50;99.90
18884;DHT22;9574;47.282;9.640;2023-11-21T03:30:53;8.50;99.90
18884;DHT22;9574;47.282;9.640;2023-11-21T03:33:22;8.30;99.90
18884;DHT22;9574;47.282;9.640;2023-11-21T03:35:49;8.00;99.90
18884;DHT22;9574;47.282;9.640;2023-11-21T03:38:16;7.80;99.90
18884;DHT22;9574;47.282;9.640;2023-11-21T03:40:43;8.00;99.90
18884;DHT22;9574;47.282;9.640;2023-11-21T03:43:09;7.80;99.90
18884;DHT22;9574;47.282;9.640;2023-11-21T03:45:37;7.60;99.90
18884;DHT22;9574;47.282;9.640;2023-11-21T03:48:06;7.60;99.90
18884;DHT22;9574;47.282;9.640;2023-11-21T03:50:34;7.60;99.90
18884;DHT22;9574;47.282;9.640;2023-11-21T03:53:01;7.70;99.90
18884;DHT22;9574;47.282;9.640;2023-11-21T03:55:29;7.90;99.90
18884;DHT22;9574;47.282;9.640;2023-11-21T03:57:57;7.90;99.90
18884;DHT22;9574;47.282;9.640;2023-11-21T04:00:24;7.70;99.90
18884;DHT22;9574;47.282;9.640;2023-11-21T04:02:52;7.60;99.90
18884;DHT22;9574;47.282;9.640;2023-11-21T04:05:20;7.60;99.90
18884;DHT22;9574;47.282;9.640;2023-11-21T04:07:48;7.50;99.90
18884;DHT22;9574;47.282;9.640;2023-11-21T04:10:15;7.70;99.90
18884;DHT22;9574;47.282;9.640;2023-11-21T04:12:43;7.80;99.90
18884;DHT22;9574;47.282;9.640;2023-11-21T04:15:11;8.10;99.90
18884;DHT22;9574;47.282;9.640;2023-11-21T04:17:39;8.20;99.90
18884;DHT22;9574;47.282;9.640;2023-11-21T04:20:07;8.40;99.90
18884;DHT22;9574;47.282;9.640;2023-11-21T04:22:37;8.50;99.90
18884;DHT22;9574;47.282;9.640;2023-11-21T04:25:08;8.40;99.90
18884;DHT22;9574;47.282;9.640;2023-11-21T04:27:35;8.20;99.90
18884;DHT22;9574;47.282;9.640;2023-11-21T04:30:02;7.90;99.90
18884;DHT22;9574;47.282;9.640;2023-11-21T04:32:29;7.80;99.90
18884;DHT22;9574;47.282;9.640;2023-11-21T04:34:56;7.60;99.90
18884;DHT22;9574;47.282;9.640;2023-11-21T04:37:23;7.50;99.90
18884;DHT22;9574;47.282;9.640;2023-11-21T04:39:50;7.70;99.90
18884;DHT22;9574;47.282;9.640;2023-11-21T04:42:19;7.60;99.90
18884;DHT22;9574;47.282;9.640;2023-11-21T04:44:46;7.40;99.90
18884;DHT22;9574;47.282;9.640;2023-11-21T04:47:13;7.30;99.90
18884;DHT22;9574;47.282;9.640;2023-11-21T04:49:42;7.40;99.90
18884;DHT22;9574;47.282;9.640;2023-11-21T04:52:09;7.70;99.90
18884;DHT22;9574;47.282;9.640;2023-11-21T04:54:36;7.70;99.90
18884;DHT22;9574;47.282;9.640;2023-11-21T04:57:03;7.60;99.90
18884;DHT22;9574;47.282;9.640;2023-11-21T04:59:34;7.40;99.90
18884;DHT22;9574;47.282;9.640;2023-11-21T05:02:01;7.40;99.90
18884;DHT22;9574;47.282;9.640;2023-11-21T05:04:28;7.40;99.90
18884;DHT22;9574;47.282;9.640;2023-11-21T05:06:55;7.40;99.90
18884;DHT22;9574;47.282;9.640;2023-11-21T05:09:22;7.50;99.90
18884;DHT22;9574;47.282;9.640;2023-11-21T05:11:49;7.60;99.90
18884;DHT22;9574;47.282;9.640;2023-11-21T05:14:16;7.80;99.90
18884;DHT22;9574;47.282;9.640;2023-11-21T05:16:45;8.00;99.90
18884;DHT22;9574;47.282;9.640;2023-11-21T05:19:12;7.80;99.90
18884;DHT22;9574;47.282;9.640;2023-11-21T05:21:39;7.70;99.90
18884;DHT22;9574;47.282;9.640;2023-11-21T05:24:07;7.60;99.90
18884;DHT22;9574;47.282;9.640;2023-11-21T05:26:34;7.60;99.90
18884;DHT22;9574;47.282;9.640;2023-11-21T05:29:01;7.70;99.90
18884;DHT22;9574;47.282;9.640;2023-11-21T05:31:28;7.90;99.90
18884;DHT22;9574;47.282;9.640;2023-11-21T05:33:57;8.00;99.90
18884;DHT22;9574;47.282;9.640;2023-11-21T05:36:24;8.10;99.90
18884;DHT22;9574;47.282;9.640;2023-11-21T05:38:51;8.20;99.90
18884;DHT22;9574;47.282;9.640;2023-11-21T05:41:18;8.00;99.90
18884;DHT22;9574;47.282;9.640;2023-11-21T05:43:45;7.90;99.90
18884;DHT22;9574;47.282;9.640;2023-11-21T05:46:12;8.00;99.90
18884;DHT22;9574;47.282;9.640;2023-11-21T05:48:39;8.20;99.90
18884;DHT22;9574;47.282;9.640;2023-11-21T05:51:09;8.10;99.90
18884;DHT22;9574;47.282;9.640;2023-11-21T05:53:40;8.00;99.90
18884;DHT22;9574;47.282;9.640;2023-11-21T05:56:07;7.80;99.90
18884;DHT22;9574;47.282;9.640;2023-11-21T05:58:34;7.70;99.90
18884;DHT22;9574;47.282;9.640;2023-11-21T06:01:01;7.60;99.90
18884;DHT22;9574;47.282;9.640;2023-11-21T06:03:30;7.50;99.90
18884;DHT22;9574;47.282;9.640;2023-11-21T06:05:57;7.50;99.90
18884;DHT22;9574;47.282;9.640;2023-11-21T06:08:25;7.70;99.90
18884;DHT22;9574;47.282;9.640;2023-11-21T06:10:52;7.80;99.90
18884;DHT22;9574;47.282;9.640;2023-11-21T06:13:20;7.80;99.90
18884;DHT22;9574;47.282;9.640;2023-11-21T06:15:50;7.80;99.90
18884;DHT22;9574;47.282;9.640;2023-11-21T06:18:17;8.00;99.90
18884;DHT22;9574;47.282;9.640;2023-11-21T06:20:45;8.10;99.90
18884;DHT22;9574;47.282;9.640;2023-11-21T06:23:12;7.80;99.90
18884;DHT22;9574;47.282;9.640;2023-11-21T06:25:41;7.70;99.90
18884;DHT22;9574;47.282;9.640;2023-11-21T06:28:08;7.60;99.90
18884;DHT22;9574;47.282;9.640;2023-11-21T06:30:34;7.50;99.90
18884;DHT22;9574;47.282;9.640;2023-11-21T06:33:01;7.30;99.90
18884;DHT22;9574;47.282;9.640;2023-11-21T06:35:28;7.30;99.90
18884;DHT22;9574;47.282;9.640;2023-11-21T06:37:58;7.20;99.90
18884;DHT22;9574;47.282;9.640;2023-11-21T06:40:25;7.10;99.90
18884;DHT22;9574;47.282;9.640;2023-11-21T06:42:53;7.00;99.90
18884;DHT22;9574;47.282;9.640;2023-11-21T06:45:20;6.90;99.90
18884;DHT22;9574;47.282;9.640;2023-11-21T06:47:48;6.90;99.90
18884;DHT22;9574;47.282;9.640;2023-11-21T06:50:15;6.90;99.90
18884;DHT22;9574;47.282;9.640;2023-11-21T06:52:42;7.20;99.90
18884;DHT22;9574;47.282;9.640;2023-11-21T06:55:10;7.50;99.90
18884;DHT22;9574;47.282;9.640;2023-11-21T06:57:37;7.80;99.90
18884;DHT22;9574;47.282;9.640;2023-11-21T07:00:06;8.00;99.90
18884;DHT22;9574;47.282;9.640;2023-11-21T07:02:34;8.10;99.90
18884;DHT22;9574;47.282;9.640;2023-11-21T07:05:01;8.20;99.90
18884;DHT22;9574;47.282;9.640;2023-11-21T07:07:28;8.20;99.90
18884;DHT22;9574;47.282;9.640;2023-11-21T07:09:55;8.10;99.90
18884;DHT22;9574;47.282;9.640;2023-11-21T07:12:22;8.00;99.90
18884;DHT22;9574;47.282;9.640;2023-11-21T07:14:51;7.90;99.90
18884;DHT22;9574;47.282;9.640;2023-11-21T07:17:20;7.70;99.90
18884;DHT22;9574;47.282;9.640;2023-11-21T07:19:48;7.50;99.90
18884;DHT22;9574;47.282;9.640;2023-11-21T07:22:16;7.40;99.90
18884;DHT22;9574;47.282;9.640;2023-11-21T07:24:48;7.20;99.90
18884;DHT22;9574;47.282;9.640;2023-11-21T07:27:15;7.20;99.90
18884;DHT22;9574;47.282;9.640;2023-11-21T07:29:42;7.20;99.90
18884;DHT22;9574;47.282;9.640;2023-11-21T07:32:09;7.10;99.90
18884;DHT22;9574;47.282;9.640;2023-11-21T07:34:37;7.20;99.90
18884;DHT22;9574;47.282;9.640;2023-11-21T07:37:04;7.20;99.90
18884;DHT22;9574;47.282;9.640;2023-11-21T07:39:31;7.50;99.90
18884;DHT22;9574;47.282;9.640;2023-11-21T07:41:58;7.60;99.90
18884;DHT22;9574;47.282;9.640;2023-11-21T07:44:25;7.50;99.90
18884;DHT22;9574;47.282;9.640;2023-11-21T07:46:52;7.40;99.90
18884;DHT22;9574;47.282;9.640;2023-11-21T07:49:23;7.40;99.90
18884;DHT22;9574;47.282;9.640;2023-11-21T07:51:51;7.40;99.90
18884;DHT22;9574;47.282;9.640;2023-11-21T07:54:18;7.40;99.90
18884;DHT22;9574;47.282;9.640;2023-11-21T07:56:46;7.40;99.90
18884;DHT22;9574;47.282;9.640;2023-11-21T07:59:13;7.40;99.90
18884;DHT22;9574;47.282;9.640;2023-11-21T08:01:40;7.50;99.90
18884;DHT22;9574;47.282;9.640;2023-11-21T08:04:09;7.60;99.90
18884;DHT22;9574;47.282;9.640;2023-11-21T08:06:35;7.60;99.90
18884;DHT22;9574;47.282;9.640;2023-11-21T08:09:04;7.70;99.90
18884;DHT22;9574;47.282;9.640;2023-11-21T08:11:33;7.70;99.90
18884;DHT22;9574;47.282;9.640;2023-11-21T08:14:01;7.80;99.90
18884;DHT22;9574;47.282;9.640;2023-11-21T08:16:27;7.70;99.90
18884;DHT22;9574;47.282;9.640;2023-11-21T08:18:54;7.70;99.90
18884;DHT22;9574;47.282;9.640;2023-11-21T08:21:22;7.80;99.90
18884;DHT22;9574;47.282;9.640;2023-11-21T08:23:50;7.90;99.90
18884;DHT22;9574;47.282;9.640;2023-11-21T08:26:22;8.10;99.90
18884;DHT22;9574;47.282;9.640;2023-11-21T08:28:49;8.10;99.90
18884;DHT22;9574;47.282;9.640;2023-11-21T08:31:23;8.20;99.90
18884;DHT22;9574;47.282;9.640;2023-11-21T08:33:49;8.10;99.90
18884;DHT22;9574;47.282;9.640;2023-11-21T08:36:16;8.10;99.90
18884;DHT22;9574;47.282;9.640;2023-11-21T08:38:43;8.00;99.90
18884;DHT22;9574;47.282;9.640;2023-11-21T08:41:10;8.00;99.90
18884;DHT22;9574;47.282;9.640;2023-11-21T08:43:39;8.00;99.90
18884;DHT22;9574;47.282;9.640;2023-11-21T08:46:06;8.00;99.90
18884;DHT22;9574;47.282;9.640;2023-11-21T08:48:35;8.20;99.90
18884;DHT22;9574;47.282;9.640;2023-11-21T08:51:02;8.40;99.90
18884;DHT22;9574;47.282;9.640;2023-11-21T08:53:29;8.50;99.90
18884;DHT22;9574;47.282;9.640;2023-11-21T08:55:56;8.50;99.90
18884;DHT22;9574;47.282;9.640;2023-11-21T08:58:24;8.60;99.90
18884;DHT22;9574;47.282;9.640;2023-11-21T09:00:52;8.70;99.90
18884;DHT22;9574;47.282;9.640;2023-11-21T09:03:19;8.80;99.90
18884;DHT22;9574;47.282;9.640;2023-11-21T09:05:46;8.90;99.90
18884;DHT22;9574;47.282;9.640;2023-11-21T09:08:13;8.90;99.90
18884;DHT22;9574;47.282;9.640;2023-11-21T09:10:40;9.00;99.90
18884;DHT22;9574;47.282;9.640;2023-11-21T09:13:08;9.10;99.90
18884;DHT22;9574;47.282;9.640;2023-11-21T09:15:35;9.10;99.90
18884;DHT22;9574;47.282;9.640;2023-11-21T09:18:04;9.00;99.90
18884;DHT22;9574;47.282;9.640;2023-11-21T09:20:31;9.20;99.90
18884;DHT22;9574;47.282;9.640;2023-11-21T09:22:58;9.40;99.90
18884;DHT22;9574;47.282;9.640;2023-11-21T09:25:25;9.50;99.90
18884;DHT22;9574;47.282;9.640;2023-11-21T09:27:54;9.30;99.90
18884;DHT22;9574;47.282;9.640;2023-11-21T09:30:22;9.20;99.90
18884;DHT22;9574;47.282;9.640;2023-11-21T09:32:50;9.10;99.90
18884;DHT22;9574;47.282;9.640;2023-11-21T09:35:18;9.30;99.90
18884;DHT22;9574;47.282;9.640;2023-11-21T09:37:45;9.30;99.90
18884;DHT22;9574;47.282;9.640;2023-11-21T09:40:12;9.40;99.90
18884;DHT22;9574;47.282;9.640;2023-11-21T09:42:49;9.40;99.90
18884;DHT22;9574;47.282;9.640;2023-11-21T09:45:23;9.50;99.90
18884;DHT22;9574;47.282;9.640;2023-11-21T09:47:52;9.50;99.90
18884;DHT22;9574;47.282;9.640;2023-11-21T09:50:23;9.40;99.90
18884;DHT22;9574;47.282;9.640;2023-11-21T09:52:57;9.30;99.90
18884;DHT22;9574;47.282;9.640;2023-11-21T09:55:27;9.30;99.90
18884;DHT22;9574;47.282;9.640;2023-11-21T09:57:56;9.50;99.90
18884;DHT22;9574;47.282;9.640;2023-11-21T10:00:23;9.60;99.90
18884;DHT22;9574;47.282;9.640;2023-11-21T10:02:51;9.80;99.90
18884;DHT22;9574;47.282;9.640;2023-11-21T10:05:19;9.90;99.90
18884;DHT22;9574;47.282;9.640;2023-11-21T10:07:50;10.00;99.90
18884;DHT22;9574;47.282;9.640;2023-11-21T10:10:19;10.00;99.90
18884;DHT22;9574;47.282;9.640;2023-11-21T10:12:49;10.00;99.90
18884;DHT22;9574;47.282;9.640;2023-11-21T10:15:21;10.00;99.90
18884;DHT22;9574;47.282;9.640;2023-11-21T10:17:49;10.00;99.90
18884;DHT22;9574;47.282;9.640;2023-11-21T10:20:19;9.80;99.90
18884;DHT22;9574;47.282;9.640;2023-11-21T10:22:46;9.80;99.90
18884;DHT22;9574;47.282;9.640;2023-11-21T10:25:14;9.60;99.90
18884;DHT22;9574;47.282;9.640;2023-11-21T10:27:42;9.50;99.90
18884;DHT22;9574;47.282;9.640;2023-11-21T10:30:10;9.60;99.90
18884;DHT22;9574;47.282;9.640;2023-11-21T10:32:38;9.90;99.90
18884;DHT22;9574;47.282;9.640;2023-11-21T10:35:06;10.30;99.90
18884;DHT22;9574;47.282;9.640;2023-11-21T10:37:35;10.50;99.90
18884;DHT22;9574;47.282;9.640;2023-11-21T10:40:06;10.60;99.90
18884;DHT22;9574;47.282;9.640;2023-11-21T10:42:34;10.80;99.90
18884;DHT22;9574;47.282;9.640;2023-11-21T10:45:01;10.80;99.90
18884;DHT22;9574;47.282;9.640;2023-11-21T10:47:31;11.00;99.90
18884;DHT22;9574;47.282;9.640;2023-11-21T10:50:00;11.20;99.90
18884;DHT22;9574;47.282;9.640;2023-11-21T10:52:28;11.40;99.90
18884;DHT22;9574;47.282;9.640;2023-11-21T10:54:55;11.60;99.90
18884;DHT22;9574;47.282;9.640;2023-11-21T10:57:25;11.70;99.90
18884;DHT22;9574;47.282;9.640;2023-11-21T10:59:54;11.70;99.90
18884;DHT22;9574;47.282;9.640;2023-11-21T11:02:24;11.70;99.90
18884;DHT22;9574;47.282;9.640;2023-11-21T11:04:54;11.90;99.90
18884;DHT22;9574;47.282;9.640;2023-11-21T11:07:25;12.30;99.90
18884;DHT22;9574;47.282;9.640;2023-11-21T11:09:53;13.10;99.90
18884;DHT22;9574;47.282;9.640;2023-11-21T11:12:21;13.80;99.90
18884;DHT22;9574;47.282;9.640;2023-11-21T11:14:48;14.40;99.90
18884;DHT22;9574;47.282;9.640;2023-11-21T11:17:17;14.90;99.90
18884;DHT22;9574;47.282;9.640;2023-11-21T11:19:46;15.20;99.90
18884;DHT22;9574;47.282;9.640;2023-11-21T11:22:24;15.50;99.90
18884;DHT22;9574;47.282;9.640;2023-11-21T11:25:08;15.20;99.90
18884;DHT22;9574;47.282;9.640;2023-11-21T11:27:47;15.40;99.90
18884;DHT22;9574;47.282;9.640;2023-11-21T11:30:26;15.30;99.90
18884;DHT22;9574;47.282;9.640;2023-11-21T11:33:07;14.30;99.90
18884;DHT22;9574;47.282;9.640;2023-11-21T11:35:43;13.60;99.90
18884;DHT22;9574;47.282;9.640;2023-11-21T11:38:13;13.10;99.90
18884;DHT22;9574;47.282;9.640;2023-11-21T11:40:41;12.90;99.90
18884;DHT22;9574;47.282;9.640;2023-11-21T11:43:08;12.60;99.90
18884;DHT22;9574;47.282;9.640;2023-11-21T11:45:35;12.30;99.90
18884;DHT22;9574;47.282;9.640;2023-11-21T11:48:10;12.20;99.90
18884;DHT22;9574;47.282;9.640;2023-11-21T11:50:44;12.20;99.90
18884;DHT22;9574;47.282;9.640;2023-11-21T11:53:33;12.20;99.90
18884;DHT22;9574;47.282;9.640;2023-11-21T11:56:20;12.10;99.90
18884;DHT22;9574;47.282;9.640;2023-11-21T11:58:48;11.70;99.90
18884;DHT22;9574;47.282;9.640;2023-11-21T12:01:17;11.50;99.90
18884;DHT22;9574;47.282;9.640;2023-11-21T12:04:24;11.50;99.90
18884;DHT22;9574;47.282;9.640;2023-11-21T12:06:59;11.50;99.90
18884;DHT22;9574;47.282;9.640;2023-11-21T12:09:28;11.60;99.90
18884;DHT22;9574;47.282;9.640;2023-11-21T12:11:57;11.70;99.90
18884;DHT22;9574;47.282;9.640;2023-11-21T12:14:24;11.70;99.90
18884;DHT22;9574;47.282;9.640;2023-11-21T12:16:51;11.80;99.90
18884;DHT22;9574;47.282;9.640;2023-11-21T12:19:20;11.80;99.90
18884;DHT22;9574;47.282;9.640;2023-11-21T12:21:48;11.40;99.90
18884;DHT22;9574;47.282;9.640;2023-11-21T12:24:16;11.30;99.90
18884;DHT22;9574;47.282;9.640;2023-11-21T12:26:43;11.30;99.90
18884;DHT22;9574;47.282;9.640;2023-11-21T12:29:10;11.20;99.90
18884;DHT22;9574;47.282;9.640;2023-11-21T12:31:37;11.10;99.90
18884;DHT22;9574;47.282;9.640;2023-11-21T12:34:05;11.00;99.90
18884;DHT22;9574;47.282;9.640;2023-11-21T12:36:34;10.90;99.90
18884;DHT22;9574;47.282;9.640;2023-11-21T12:39:02;10.90;99.90
18884;DHT22;9574;47.282;9.640;2023-11-21T12:41:29;10.70;99.90
18884;DHT22;9574;47.282;9.640;2023-11-21T12:43:57;10.40;99.90
18884;DHT22;9574;47.282;9.640;2023-11-21T12:46:25;10.30;99.90
18884;DHT22;9574;47.282;9.640;2023-11-21T12:48:55;10.10;99.90
18884;DHT22;9574;47.282;9.640;2023-11-21T12:51:22;10.30;99.90
18884;DHT22;9574;47.282;9.640;2023-11-21T12:53:51;10.50;99.90
18884;DHT22;9574;47.282;9.640;2023-11-21T12:56:19;10.50;99.90
18884;DHT22;9574;47.282;9.640;2023-11-21T12:58:49;10.50;99.90
18884;DHT22;9574;47.282;9.640;2023-11-21T13:01:17;10.50;99.90
18884;DHT22;9574;47.282;9.640;2023-11-21T13:03:47;10.40;99.90
18884;DHT22;9574;47.282;9.640;2023-11-21T13:06:17;10.00;99.90
18884;DHT22;9574;47.282;9.640;2023-11-21T13:08:45;9.80;99.90
18884;DHT22;9574;47.282;9.640;2023-11-21T13:11:13;9.70;99.90
18884;DHT22;9574;47.282;9.640;2023-11-21T13:13:41;9.90;99.90
18884;DHT22;9574;47.282;9.640;2023-11-21T13:16:11;9.90;99.90
18884;DHT22;9574;47.282;9.640;2023-11-21T13:18:38;9.90;99.90
18884;DHT22;9574;47.282;9.640;2023-11-21T13:21:08;9.70;99.90
18884;DHT22;9574;47.282;9.640;2023-11-21T13:23:39;9.60;99.90
18884;DHT22;9574;47.282;9.640;2023-11-21T13:26:07;9.40;99.90
18884;DHT22;9574;47.282;9.640;2023-11-21T13:28:36;9.30;99.90
18884;DHT22;9574;47.282;9.640;2023-11-21T13:31:04;9.20;99.90
18884;DHT22;9574;47.282;9.640;2023-11-21T13:33:46;9.20;99.90
18884;DHT22;9574;47.282;9.640;2023-11-21T13:36:17;9.30;99.90
18884;DHT22;9574;47.282;9.640;2023-11-21T13:38:48;9.30;99.90
18884;DHT22;9574;47.282;9.640;2023-11-21T13:41:15;9.40;99.90
18884;DHT22;9574;47.282;9.640;2023-11-21T13:43:45;9.40;99.90
18884;DHT22;9574;47.282;9.640;2023-11-21T13:46:24;9.40;99.90
18884;DHT22;9574;47.282;9.640;2023-11-21T13:48:51;9.80;99.90
18884;DHT22;9574;47.282;9.640;2023-11-21T13:51:21;10.10;99.90
18884;DHT22;9574;47.282;9.640;2023-11-21T13:53:56;10.30;99.90
18884;DHT22;9574;47.282;9.640;2023-11-21T13:56:24;10.50;99.90
18884;DHT22;9574;47.282;9.640;2023-11-21T13:58:55;10.50;99.90
18884;DHT22;9574;47.282;9.640;2023-11-21T14:01:25;10.60;99.90
18884;DHT22;9574;47.282;9.640;2023-11-21T14:04:10;10.50;99.90
18884;DHT22;9574;47.282;9.640;2023-11-21T14:06:45;10.50;99.90
18884;DHT22;9574;47.282;9.640;2023-11-21T14:09:14;10.40;99.90
18884;DHT22;9574;47.282;9.640;2023-11-21T14:11:49;10.30;99.90
18884;DHT22;9574;47.282;9.640;2023-11-21T14:14:18;10.00;99.90
18884;DHT22;9574;47.282;9.640;2023-11-21T14:16:45;9.70;99.90
18884;DHT22;9574;47.282;9.640;2023-11-21T14:19:11;9.60;99.90
18884;DHT22;9574;47.282;9.640;2023-11-21T14:21:42;9.40;99.90
18884;DHT22;9574;47.282;9.640;2023-11-21T14:24:10;9.30;99.90
18884;DHT22;9574;47.282;9.640;2023-11-21T14:26:39;9.30;99.90
18884;DHT22;9574;47.282;9.640;2023-11-21T14:29:08;9.20;99.90
18884;DHT22;9574;47.282;9.640;2023-11-21T14:31:39;9.10;99.90
18884;DHT22;9574;47.282;9.640;2023-11-21T14:34:06;9.10;99.90
18884;DHT22;9574;47.282;9.640;2023-11-21T14:36:33;9.10;99.90
18884;DHT22;9574;47.282;9.640;2023-11-21T14:39:02;9.10;99.90
18884;DHT22;9574;47.282;9.640;2023-11-21T14:41:32;9.10;99.90
18884;DHT22;9574;47.282;9.640;2023-11-21T14:44:01;9.10;99.90
18884;DHT22;9574;47.282;9.640;2023-11-21T14:46:28;9.00;99.90
18884;DHT22;9574;47.282;9.640;2023-11-21T14:48:56;8.80;99.90
18884;DHT22;9574;47.282;9.640;2023-11-21T14:51:28;8.50;99.90
18884;DHT22;9574;47.282;9.640;2023-11-21T14:53:57;8.30;99.90
18884;DHT22;9574;47.282;9.640;2023-11-21T14:56:31;8.10;99.90
18884;DHT22;9574;47.282;9.640;2023-11-21T14:59:01;7.90;99.90
18884;DHT22;9574;47.282;9.640;2023-11-21T15:01:31;7.80;99.90
18884;DHT22;9574;47.282;9.640;2023-11-21T15:04:11;7.70;99.90
18884;DHT22;9574;47.282;9.640;2023-11-21T15:06:49;7.80;99.90
18884;DHT22;9574;47.282;9.640;2023-11-21T15:09:19;7.80;99.90
18884;DHT22;9574;47.282;9.640;2023-11-21T15:12:02;7.70;99.90
18884;DHT22;9574;47.282;9.640;2023-11-21T15:14:40;7.80;99.90
18884;DHT22;9574;47.282;9.640;2023-11-21T15:17:06;7.80;99.90
18884;DHT22;9574;47.282;9.640;2023-11-21T15:19:34;8.20;99.90
18884;DHT22;9574;47.282;9.640;2023-11-21T15:22:02;8.50;99.90
18884;DHT22;9574;47.282;9.640;2023-11-21T15:24:29;8.70;99.90
18884;DHT22;9574;47.282;9.640;2023-11-21T15:26:56;8.90;99.90
18884;DHT22;9574;47.282;9.640;2023-11-21T15:29:24;8.70;99.90
18884;DHT22;9574;47.282;9.640;2023-11-21T15:31:52;8.50;99.90
18884;DHT22;9574;47.282;9.640;2023-11-21T15:34:22;8.30;99.90
18884;DHT22;9574;47.282;9.640;2023-11-21T15:36:50;8.30;99.90
18884;DHT22;9574;47.282;9.640;2023-11-21T15:39:20;8.60;99.90
18884;DHT22;9574;47.282;9.640;2023-11-21T15:41:52;8.90;99.90
18884;DHT22;9574;47.282;9.640;2023-11-21T15:44:19;9.00;99.90
18884;DHT22;9574;47.282;9.640;2023-11-21T15:46:46;8.80;99.90
18884;DHT22;9574;47.282;9.640;2023-11-21T15:49:13;8.60;99.90
18884;DHT22;9574;47.282;9.640;2023-11-21T15:51:44;8.60;99.90
18884;DHT22;9574;47.282;9.640;2023-11-21T15:54:14;8.70;99.90
18884;DHT22;9574;47.282;9.640;2023-11-21T15:56:41;8.80;99.90
18884;DHT22;9574;47.282;9.640;2023-11-21T15:59:08;8.90;99.90
18884;DHT22;9574;47.282;9.640;2023-11-21T16:01:36;9.00;99.90
18884;DHT22;9574;47.282;9.640;2023-11-21T16:04:07;9.10;99.90
18884;DHT22;9574;47.282;9.640;2023-11-21T16:06:34;9.10;99.90
18884;DHT22;9574;47.282;9.640;2023-11-21T16:09:05;9.10;99.90